createdAt,value
2019-04-25T00:01:15.452Z,100299.45
2019-04-25T00:03:45.617Z,100312.53
2019-04-25T00:06:15.795Z,100322.70
2019-04-25T00:08:45.931Z,100324.25
2019-04-25T00:11:16.335Z,100327.67
2019-04-25T00:13:46.519Z,100331.40
2019-04-25T00:16:17.888Z,100327.11
2019-04-25T00:18:48.421Z,100330.97
2019-04-25T00:21:33.955Z,100334.02
2019-04-25T00:24:09.828Z,100337.59
2019-04-25T00:26:46.397Z,100332.77
2019-04-25T00:29:16.605Z,100334.80
2019-04-25T00:31:47.235Z,100338.67
2019-04-25T00:34:17.385Z,100333.52
2019-04-25T00:36:47.523Z,100331.56
2019-04-25T00:39:17.715Z,100337.41
2019-04-25T00:41:47.820Z,100338.22
2019-04-25T00:44:18.034Z,100331.03
2019-04-25T00:46:50.152Z,100325.84
2019-04-25T00:49:20.076Z,100325.54
2019-04-25T00:51:54.433Z,100314.87
2019-04-25T00:54:24.507Z,100313.41
2019-04-25T00:56:54.629Z,100319.02
2019-04-25T00:59:32.095Z,100324.61
2019-04-25T01:02:15.667Z,100323.30
2019-04-25T01:04:45.842Z,100323.48
2019-04-25T01:07:16.156Z,100317.36
2019-04-25T01:09:46.465Z,100298.16
2019-04-25T01:12:18.793Z,100303.81
2019-04-25T01:14:48.913Z,100307.67
2019-04-25T01:17:19.127Z,100310.70
2019-04-25T01:19:49.237Z,100311.09
2019-04-25T01:22:19.327Z,100318.15
2019-04-25T01:24:49.460Z,100323.81
2019-04-25T01:27:19.547Z,100319.88
2019-04-25T01:29:49.818Z,100323.62
2019-04-25T01:32:26.719Z,100315.44
2019-04-25T01:35:04.128Z,100315.71
2019-04-25T01:37:59.083Z,100319.47
2019-04-25T01:40:51.190Z,100313.44
2019-04-25T01:43:52.750Z,100312.64
2019-04-25T01:46:22.123Z,100305.41
2019-04-25T01:48:54.204Z,100318.54
2019-04-25T01:51:29.193Z,100317.56
2019-04-25T01:54:03.984Z,100308.33
2019-04-25T01:56:31.107Z,100315.08
2019-04-25T01:59:01.593Z,100319.16
2019-04-25T02:01:32.203Z,100320.08
2019-04-25T02:04:05.222Z,100315.98
2019-04-25T02:06:35.428Z,100310.42
2019-04-25T02:09:09.542Z,100307.16
2019-04-25T02:11:58.959Z,100307.16
2019-04-25T02:14:29.106Z,100305.14
2019-04-25T02:17:00.332Z,100303.84
2019-04-25T02:19:30.489Z,100298.75
2019-04-25T02:22:00.587Z,100300.55
2019-04-25T02:24:30.657Z,100301.58
2019-04-25T02:27:00.925Z,100307.44
2019-04-25T02:29:31.305Z,100306.30
2019-04-25T02:32:07.880Z,100310.64
2019-04-25T02:34:34.673Z,100309.00
2019-04-25T02:37:09.358Z,100295.06
2019-04-25T02:39:44.577Z,100294.44
2019-04-25T02:42:16.749Z,100285.22
2019-04-25T02:44:51.947Z,100295.37
2019-04-25T02:47:46.223Z,100300.51
2019-04-25T02:50:53.927Z,100305.77
2019-04-25T02:53:38.860Z,100318.39
2019-04-25T02:56:30.530Z,100327.26
2019-04-25T02:58:44.766Z,100342.02
2019-04-25T03:01:22.660Z,100348.17
2019-04-25T03:03:49.926Z,100354.06
2019-04-25T03:06:20.132Z,100350.99
2019-04-25T03:08:50.224Z,100358.73
2019-04-25T03:11:24.508Z,100353.63
2019-04-25T03:13:57.503Z,100361.48
2019-04-25T03:16:32.084Z,100363.77
2019-04-25T03:19:27.292Z,100371.03
2019-04-25T03:22:05.870Z,100388.95
2019-04-25T03:24:35.437Z,100383.80
2019-04-25T03:27:06.176Z,100381.19
2019-04-25T03:29:37.224Z,100387.62
2019-04-25T03:32:12.048Z,100380.34
2019-04-25T03:34:39.120Z,100380.65
2019-04-25T03:37:09.449Z,100378.74
2019-04-25T03:39:39.561Z,100379.47
2019-04-25T03:42:09.908Z,100378.70
2019-04-25T03:44:43.819Z,100375.72
2019-04-25T03:47:14.110Z,100378.05
2019-04-25T03:49:44.174Z,100382.92
2019-04-25T03:52:14.369Z,100379.00
2019-04-25T03:54:44.444Z,100390.20
2019-04-25T03:57:14.688Z,100397.50
2019-04-25T03:59:44.976Z,100392.63
2019-04-25T04:02:20.216Z,100390.06
2019-04-25T04:04:50.350Z,100392.92
2019-04-25T04:07:20.468Z,100407.16
2019-04-25T04:09:50.578Z,100401.09
2019-04-25T04:12:21.866Z,100402.84
2019-04-25T04:14:53.633Z,100410.11
2019-04-25T04:17:36.285Z,100413.45
2019-04-25T04:20:43.653Z,100410.28
2019-04-25T04:23:27.948Z,100411.41
2019-04-25T04:25:58.104Z,100402.66
2019-04-25T04:28:28.220Z,100396.05
2019-04-25T04:30:58.330Z,100402.99
2019-04-25T04:33:34.650Z,100412.14
2019-04-25T04:36:04.885Z,100411.75
2019-04-25T04:38:35.050Z,100410.75
2019-04-25T04:41:05.092Z,100422.68
2019-04-25T04:43:35.486Z,100423.07
2019-04-25T04:46:05.562Z,100421.41
2019-04-25T04:48:35.731Z,100425.15
2019-04-25T04:51:08.934Z,100434.22
2019-04-25T04:53:39.072Z,100437.78
2019-04-25T04:56:09.673Z,100433.56
2019-04-25T04:58:39.782Z,100440.90
2019-04-25T05:01:10.222Z,100442.57
2019-04-25T05:04:03.971Z,100447.92
2019-04-25T05:06:53.619Z,100456.25
2019-04-25T05:09:27.104Z,100463.77
2019-04-25T05:11:58.502Z,100463.72
2019-04-25T05:14:28.633Z,100475.05
2019-04-25T05:16:58.758Z,100476.75
2019-04-25T05:19:30.056Z,100485.17
2019-04-25T05:22:00.173Z,100489.81
2019-04-25T05:24:30.281Z,100491.56
2019-04-25T05:27:00.336Z,100502.17
2019-04-25T05:29:30.503Z,100502.55
2019-04-25T05:32:00.612Z,100505.97
2019-04-25T05:34:34.425Z,100508.91
2019-04-25T05:37:04.584Z,100512.78
2019-04-25T05:39:35.253Z,100529.16
2019-04-25T05:42:27.705Z,100524.71
2019-04-25T05:44:59.565Z,100532.33
2019-04-25T05:47:29.770Z,100522.12
2019-04-25T05:49:59.895Z,100522.30
2019-04-25T05:52:31.087Z,100524.38
2019-04-25T05:55:01.186Z,100523.53
2019-04-25T05:57:43.594Z,100529.92
2019-04-25T06:00:03.669Z,100527.73
2019-04-25T06:02:34.992Z,100532.33
2019-04-25T06:05:05.264Z,100536.97
2019-04-25T06:07:35.310Z,100530.64
2019-04-25T06:10:25.700Z,100522.95
2019-04-25T06:13:27.908Z,100520.05
2019-04-25T06:16:06.195Z,100524.87
2019-04-25T06:18:55.278Z,100530.83
2019-04-25T06:21:25.641Z,100517.98
2019-04-25T06:24:18.966Z,100522.27
2019-04-25T06:27:20.566Z,100519.94
2019-04-25T06:29:59.125Z,100517.18
2019-04-25T06:32:27.104Z,100533.33
2019-04-25T06:34:57.757Z,100540.56
2019-04-25T06:37:30.039Z,100538.67
2019-04-25T06:40:00.105Z,100540.20
2019-04-25T06:42:30.411Z,100534.72
2019-04-25T06:45:25.031Z,100539.50
2019-04-25T06:48:13.988Z,100541.62
2019-04-25T06:50:44.273Z,100537.89
2019-04-25T06:53:14.367Z,100544.80
2019-04-25T06:55:45.002Z,100553.39
2019-04-25T06:58:15.349Z,100553.70
2019-04-25T07:00:57.183Z,100566.28
2019-04-25T07:03:17.296Z,100573.98
2019-04-25T07:05:47.412Z,100566.78
2019-04-25T07:08:17.534Z,100562.86
2019-04-25T07:10:49.251Z,100568.31
2019-04-25T07:13:19.375Z,100570.61
2019-04-25T07:15:49.577Z,100568.14
2019-04-25T07:18:19.728Z,100564.39
2019-04-25T07:20:49.827Z,100566.97
2019-04-25T07:23:20.003Z,100563.16
2019-04-25T07:25:59.417Z,100569.13
2019-04-25T07:28:47.193Z,100562.13
2019-04-25T07:31:48.678Z,100575.61
2019-04-25T07:34:25.043Z,100565.14
2019-04-25T07:36:55.602Z,100566.70
2019-04-25T07:39:26.065Z,100559.83
2019-04-25T07:41:57.630Z,100559.52
2019-04-25T07:44:38.765Z,100564.57
2019-04-25T07:46:59.604Z,100556.67
2019-04-25T07:49:30.499Z,100565.24
2019-04-25T07:52:00.799Z,100567.14
2019-04-25T07:54:34.413Z,100566.03
2019-04-25T07:57:05.562Z,100565.97
2019-04-25T07:59:36.376Z,100559.02
2019-04-25T08:02:06.905Z,100555.44
2019-04-25T08:04:37.214Z,100560.41
2019-04-25T08:07:07.416Z,100563.56
2019-04-25T08:09:37.973Z,100559.70
2019-04-25T08:12:08.249Z,100554.06
2019-04-25T08:14:49.683Z,100545.86
2019-04-25T08:17:39.885Z,100548.66
2019-04-25T08:20:10.716Z,100556.06
2019-04-25T08:22:56.227Z,100558.84
2019-04-25T08:25:16.487Z,100553.26
2019-04-25T08:27:46.671Z,100553.13
2019-04-25T08:30:18.334Z,100554.36
2019-04-25T08:32:48.485Z,100557.06
2019-04-25T08:35:18.574Z,100560.10
2019-04-25T08:37:50.562Z,100551.59
2019-04-25T08:40:21.196Z,100553.80
2019-04-25T08:42:53.748Z,100563.83
2019-04-25T08:45:24.544Z,100561.75
2019-04-25T08:47:54.700Z,100548.50
2019-04-25T08:50:33.187Z,100544.58
2019-04-25T08:53:03.966Z,100552.80
2019-04-25T08:55:53.916Z,100569.34
2019-04-25T08:59:01.453Z,100561.70
2019-04-25T09:01:40.643Z,100560.15
2019-04-25T09:04:16.236Z,100550.70
2019-04-25T09:06:46.326Z,100546.58
2019-04-25T09:09:18.688Z,100547.80
2019-04-25T09:11:48.811Z,100553.21
2019-04-25T09:14:20.222Z,100554.95
2019-04-25T09:16:53.379Z,100551.83
2019-04-25T09:19:24.142Z,100547.23
2019-04-25T09:21:54.366Z,100549.91
2019-04-25T09:24:24.685Z,100564.34
2019-04-25T09:26:55.230Z,100568.69
2019-04-25T09:29:25.502Z,100564.44
2019-04-25T09:31:55.687Z,100566.34
2019-04-25T09:34:25.794Z,100560.52
2019-04-25T09:36:55.940Z,100559.69
2019-04-25T09:39:43.497Z,100561.88
2019-04-25T09:42:14.495Z,100565.13
2019-04-25T09:45:03.785Z,100567.25
2019-04-25T09:47:35.989Z,100559.01
2019-04-25T09:50:09.972Z,100549.62
2019-04-25T09:52:40.219Z,100550.02
2019-04-25T09:55:35.983Z,100551.75
2019-04-25T09:58:15.235Z,100556.94
2019-04-25T10:00:48.750Z,100560.95
2019-04-25T10:03:18.902Z,100560.21
2019-04-25T10:05:49.084Z,100555.80
2019-04-25T10:08:20.171Z,100569.23
2019-04-25T10:10:50.306Z,100570.16
2019-04-25T10:13:20.481Z,100575.04
2019-04-25T10:16:05.967Z,100567.56
2019-04-25T10:18:37.744Z,100567.28
2019-04-25T10:21:11.313Z,100558.67
2019-04-25T10:23:44.081Z,100555.20
2019-04-25T10:26:14.714Z,100557.62
2019-04-25T10:28:45.194Z,100553.59
2019-04-25T10:31:15.579Z,100555.19
2019-04-25T10:33:47.057Z,100554.84
2019-04-25T10:36:17.252Z,100549.92
2019-04-25T10:39:03.274Z,100548.52
2019-04-25T10:41:20.035Z,100549.48
2019-04-25T10:43:50.452Z,100549.81
2019-04-25T10:46:21.930Z,100544.59
2019-04-25T10:48:55.943Z,100542.20
2019-04-25T10:51:25.753Z,100543.14
2019-04-25T10:53:55.944Z,100533.38
2019-04-25T10:56:26.343Z,100534.03
2019-04-25T10:58:57.911Z,100525.88
2019-04-25T11:01:28.963Z,100535.27
2019-04-25T11:04:04.750Z,100533.47
2019-04-25T11:06:35.948Z,100523.75
2019-04-25T11:09:13.794Z,100524.91
2019-04-25T11:11:48.531Z,100523.09
2019-04-25T11:14:18.708Z,100523.16
2019-04-25T11:16:48.829Z,100515.95
2019-04-25T11:19:18.943Z,100509.64
2019-04-25T11:21:50.016Z,100515.73
2019-04-25T11:24:20.430Z,100520.55
2019-04-25T11:26:51.525Z,100521.75
2019-04-25T11:29:24.409Z,100521.13
2019-04-25T11:31:54.746Z,100516.59
2019-04-25T11:34:24.931Z,100534.06
2019-04-25T11:36:55.143Z,100531.63
2019-04-25T11:39:48.095Z,100534.77
2019-04-25T11:42:20.989Z,100537.90
2019-04-25T11:44:52.697Z,100534.09
2019-04-25T11:47:26.218Z,100528.81
2019-04-25T11:49:56.454Z,100520.75
2019-04-25T11:52:28.273Z,100524.97
2019-04-25T11:54:58.389Z,100520.57
2019-04-25T11:57:28.541Z,100520.98
2019-04-25T11:59:58.655Z,100515.31
2019-04-25T12:02:30.221Z,100515.20
2019-04-25T12:05:00.368Z,100513.22
2019-04-25T12:07:30.727Z,100509.37
2019-04-25T12:10:03.809Z,100505.42
2019-04-25T12:12:37.908Z,100499.33
2019-04-25T12:15:25.835Z,100495.30
2019-04-25T12:17:56.079Z,100497.33
2019-04-25T12:20:26.823Z,100489.55
2019-04-25T12:23:08.379Z,100494.36
2019-04-25T12:25:34.096Z,100489.66
2019-04-25T12:28:07.107Z,100493.31
2019-04-25T12:30:40.314Z,100475.42
2019-04-25T12:33:20.361Z,100486.20
2019-04-25T12:35:41.022Z,100478.08
2019-04-25T12:38:14.221Z,100475.34
2019-04-25T12:40:44.431Z,100475.38
2019-04-25T12:43:14.629Z,100472.06
2019-04-25T12:45:50.586Z,100476.19
2019-04-25T12:48:20.704Z,100476.72
2019-04-25T12:50:51.897Z,100473.91
2019-04-25T12:53:23.578Z,100464.70
2019-04-25T12:55:54.847Z,100465.53
2019-04-25T12:58:25.103Z,100450.31
2019-04-25T13:00:58.656Z,100455.28
2019-04-25T13:03:27.261Z,100450.61
2019-04-25T13:05:58.520Z,100456.54
2019-04-25T13:08:28.637Z,100457.27
2019-04-25T13:11:08.049Z,100450.52
2019-04-25T13:13:30.572Z,100443.34
2019-04-25T13:16:00.726Z,100442.66
2019-04-25T13:18:30.903Z,100437.89
2019-04-25T13:21:01.040Z,100430.28
2019-04-25T13:23:32.031Z,100428.81
2019-04-25T13:26:05.266Z,100425.19
2019-04-25T13:28:44.494Z,100432.17
2019-04-25T13:31:36.722Z,100435.06
2019-04-25T13:34:14.230Z,100427.89
2019-04-25T13:36:44.457Z,100437.47
2019-04-25T13:39:17.198Z,100438.85
2019-04-25T13:41:47.903Z,100432.52
2019-04-25T13:44:18.103Z,100426.03
2019-04-25T13:46:48.883Z,100428.67
2019-04-25T13:49:19.464Z,100428.23
2019-04-25T13:51:53.732Z,100431.29
2019-04-25T13:54:25.039Z,100422.25
2019-04-25T13:56:55.474Z,100424.45
2019-04-25T13:59:25.732Z,100420.88
2019-04-25T14:01:57.775Z,100415.19
2019-04-25T14:04:28.159Z,100413.70
2019-04-25T14:06:58.226Z,100411.30
2019-04-25T14:09:29.822Z,100408.73
2019-04-25T14:11:59.911Z,100396.53
2019-04-25T14:14:30.267Z,100394.17
2019-04-25T14:17:23.103Z,100389.13
2019-04-25T14:20:14.248Z,100399.44
2019-04-25T14:22:48.210Z,100388.23
2019-04-25T14:25:18.628Z,100386.77
2019-04-25T14:27:48.735Z,100382.38
2019-04-25T14:30:20.966Z,100375.00
2019-04-25T14:32:53.653Z,100356.97
2019-04-25T14:35:24.141Z,100363.09
2019-04-25T14:37:54.286Z,100367.91
2019-04-25T14:40:25.826Z,100366.52
2019-04-25T14:42:57.019Z,100361.73
2019-04-25T14:45:27.165Z,100357.81
2019-04-25T14:47:57.360Z,100358.32
2019-04-25T14:50:30.053Z,100356.22
2019-04-25T14:53:00.150Z,100358.91
2019-04-25T14:55:56.688Z,100348.50
2019-04-25T14:58:30.358Z,100345.78
2019-04-25T15:01:00.902Z,100347.86
2019-04-25T15:03:31.807Z,100340.59
2019-04-25T15:06:02.008Z,100343.17
2019-04-25T15:08:32.705Z,100339.88
2019-04-25T15:11:03.096Z,100340.21
2019-04-25T15:13:33.203Z,100338.27
2019-04-25T15:16:04.882Z,100333.38
2019-04-25T15:18:46.417Z,100332.27
2019-04-25T15:21:09.754Z,100331.52
2019-04-25T15:23:39.844Z,100333.08
2019-04-25T15:26:09.974Z,100329.38
2019-04-25T15:28:40.949Z,100343.09
2019-04-25T15:31:11.317Z,100338.66
2019-04-25T15:33:41.474Z,100335.80
2019-04-25T15:36:17.533Z,100318.23
2019-04-25T15:38:53.503Z,100333.66
2019-04-25T15:41:45.254Z,100332.44
2019-04-25T15:44:36.443Z,100319.66
2019-04-25T15:47:09.359Z,100319.63
2019-04-25T15:49:39.512Z,100323.45
2019-04-25T15:52:10.440Z,100311.25
2019-04-25T15:54:40.574Z,100305.50
2019-04-25T15:57:10.950Z,100302.13
2019-04-25T15:59:41.290Z,100310.36
2019-04-25T16:02:13.236Z,100299.52
2019-04-25T16:04:43.515Z,100293.66
2019-04-25T16:07:13.754Z,100287.50
2019-04-25T16:09:43.873Z,100279.89
2019-04-25T16:12:14.034Z,100274.52
2019-04-25T16:14:44.263Z,100269.02
2019-04-25T16:17:14.480Z,100256.59
2019-04-25T16:19:44.704Z,100261.23
2019-04-25T16:22:14.953Z,100261.02
2019-04-25T16:24:45.097Z,100252.95
2019-04-25T16:27:15.491Z,100256.41
2019-04-25T16:29:45.614Z,100256.77
2019-04-25T16:32:21.050Z,100257.15
2019-04-25T16:34:51.410Z,100253.18
2019-04-25T16:37:21.573Z,100257.31
2019-04-25T16:39:51.682Z,100247.61
2019-04-25T16:42:21.810Z,100258.20
2019-04-25T16:44:51.970Z,100253.00
2019-04-25T16:47:24.560Z,100240.47
2019-04-25T16:49:54.718Z,100254.38
2019-04-25T16:52:25.560Z,100254.68
2019-04-25T16:54:55.903Z,100251.83
2019-04-25T16:57:26.126Z,100251.83
2019-04-25T16:59:56.253Z,100255.81
2019-04-25T17:02:35.471Z,100254.46
2019-04-25T17:05:02.157Z,100258.60
2019-04-25T17:07:32.413Z,100247.72
2019-04-25T17:10:02.489Z,100246.57
2019-04-25T17:12:34.363Z,100249.23
2019-04-25T17:15:17.067Z,100243.07
2019-04-25T17:18:15.291Z,100232.94
2019-04-25T17:20:50.949Z,100231.11
2019-04-25T17:23:21.630Z,100231.11
2019-04-25T17:25:51.721Z,100230.13
2019-04-25T17:28:22.283Z,100226.07
2019-04-25T17:30:58.213Z,100231.70
2019-04-25T17:33:47.459Z,100230.11
2019-04-25T17:36:26.270Z,100220.98
2019-04-25T17:39:00.781Z,100219.90
2019-04-25T17:41:33.136Z,100221.76
2019-04-25T17:44:03.560Z,100219.83
2019-04-25T17:46:34.018Z,100220.27
2019-04-25T17:49:04.226Z,100219.64
2019-04-25T17:51:34.497Z,100220.27
2019-04-25T17:54:05.624Z,100226.76
2019-04-25T17:56:36.406Z,100230.89
2019-04-25T17:59:06.644Z,100228.67
2019-04-25T18:01:36.847Z,100225.59
2019-04-25T18:04:07.299Z,100224.98
2019-04-25T18:06:37.688Z,100221.35
2019-04-25T18:09:08.663Z,100225.70
2019-04-25T18:11:40.199Z,100225.20
2019-04-25T18:14:10.411Z,100225.45
2019-04-25T18:16:44.813Z,100224.16
2019-04-25T18:19:35.260Z,100218.86
2019-04-25T18:22:16.275Z,100211.00
2019-04-25T18:25:02.688Z,100217.90
2019-04-25T18:27:38.038Z,100216.67
2019-04-25T18:30:09.083Z,100209.63
2019-04-25T18:32:41.445Z,100210.09
2019-04-25T18:35:20.517Z,100210.90
2019-04-25T18:38:18.624Z,100211.05
2019-04-25T18:41:07.712Z,100203.86
2019-04-25T18:43:41.151Z,100206.44
2019-04-25T18:46:20.244Z,100204.58
2019-04-25T18:48:50.505Z,100205.66
2019-04-25T18:51:20.727Z,100209.38
2019-04-25T18:54:09.849Z,100207.06
2019-04-25T18:56:59.049Z,100202.95
2019-04-25T19:00:06.588Z,100200.93
2019-04-25T19:02:57.600Z,100207.27
2019-04-25T19:05:47.233Z,100208.78
2019-04-25T19:08:18.127Z,100210.17
2019-04-25T19:10:48.347Z,100206.20
2019-04-25T19:13:18.554Z,100208.53
2019-04-25T19:15:48.747Z,100212.56
2019-04-25T19:18:18.929Z,100207.38
2019-04-25T19:20:49.237Z,100217.84
2019-04-25T19:23:19.471Z,100211.07
2019-04-25T19:25:49.682Z,100214.37
2019-04-25T19:28:19.950Z,100199.80
2019-04-25T19:30:51.455Z,100204.23
2019-04-25T19:33:35.066Z,100204.56
2019-04-25T19:35:55.801Z,100205.52
2019-04-25T19:38:26.032Z,100205.84
2019-04-25T19:41:15.324Z,100210.04
2019-04-25T19:43:58.480Z,100210.27
2019-04-25T19:46:42.866Z,100211.89
2019-04-25T19:49:13.252Z,100207.47
2019-04-25T19:51:43.650Z,100210.48
2019-04-25T19:54:15.096Z,100202.35
2019-04-25T19:56:45.374Z,100203.59
2019-04-25T19:59:15.751Z,100199.00
2019-04-25T20:01:45.995Z,100201.51
2019-04-25T20:04:25.640Z,100199.53
2019-04-25T20:07:19.359Z,100199.99
2019-04-25T20:10:20.843Z,100203.63
2019-04-25T20:12:53.378Z,100205.02
2019-04-25T20:15:23.642Z,100202.15
2019-04-25T20:17:54.250Z,100207.63
2019-04-25T20:20:27.161Z,100205.79
2019-04-25T20:22:57.386Z,100208.61
2019-04-25T20:25:27.628Z,100206.03
2019-04-25T20:27:57.765Z,100210.34
2019-04-25T20:30:28.016Z,100209.06
2019-04-25T20:32:59.974Z,100205.84
2019-04-25T20:35:30.111Z,100201.14
2019-04-25T20:38:00.337Z,100203.44
2019-04-25T20:40:30.527Z,100201.56
2019-04-25T20:43:02.040Z,100205.41
2019-04-25T20:45:32.297Z,100204.52
2019-04-25T20:48:02.586Z,100198.78
2019-04-25T20:50:33.208Z,100194.67
2019-04-25T20:53:04.386Z,100198.05
2019-04-25T20:55:34.593Z,100198.22
2019-04-25T20:58:04.780Z,100196.61
2019-04-25T21:00:42.793Z,100202.08
2019-04-25T21:03:14.190Z,100201.33
2019-04-25T21:05:45.543Z,100194.05
2019-04-25T21:08:15.778Z,100193.06
2019-04-25T21:10:48.110Z,100196.14
2019-04-25T21:13:24.490Z,100195.75
2019-04-25T21:16:01.154Z,100193.86
2019-04-25T21:18:38.878Z,100193.48
2019-04-25T21:21:08.998Z,100190.00
2019-04-25T21:23:39.834Z,100191.16
2019-04-25T21:26:09.980Z,100186.96
2019-04-25T21:28:40.151Z,100182.36
2019-04-25T21:31:10.328Z,100185.98
2019-04-25T21:33:40.494Z,100189.23
2019-04-25T21:36:10.705Z,100185.78
2019-04-25T21:38:41.180Z,100184.09
2019-04-25T21:41:36.244Z,100181.22
2019-04-25T21:44:06.964Z,100184.45
2019-04-25T21:46:37.645Z,100185.30
2019-04-25T21:49:08.180Z,100178.23
2019-04-25T21:51:40.778Z,100179.19
2019-04-25T21:54:14.411Z,100173.63
2019-04-25T21:56:45.724Z,100179.29
2019-04-25T21:59:16.304Z,100176.41
2019-04-25T22:01:46.459Z,100175.82
2019-04-25T22:04:16.639Z,100183.19
2019-04-25T22:06:47.081Z,100184.78
2019-04-25T22:09:19.358Z,100188.16
2019-04-25T22:11:49.869Z,100189.78
2019-04-25T22:14:20.878Z,100185.57
2019-04-25T22:16:51.250Z,100185.08
2019-04-25T22:19:21.748Z,100185.47
2019-04-25T22:21:52.388Z,100180.57
2019-04-25T22:24:22.762Z,100183.73
2019-04-25T22:26:56.440Z,100189.49
2019-04-25T22:29:27.408Z,100195.52
2019-04-25T22:32:10.845Z,100202.11
2019-04-25T22:34:58.227Z,100233.79
2019-04-25T22:37:29.656Z,100292.95
2019-04-25T22:40:01.195Z,100288.17
2019-04-25T22:42:31.462Z,100260.98
2019-04-25T22:45:01.802Z,100252.95
2019-04-25T22:47:33.510Z,100288.73
2019-04-25T22:50:05.006Z,100304.27
2019-04-25T22:52:35.368Z,100303.22
2019-04-25T22:55:06.702Z,100294.50
2019-04-25T22:57:36.982Z,100281.98
2019-04-25T23:00:11.319Z,100301.39
2019-04-25T23:02:49.650Z,100320.03
2019-04-25T23:05:26.519Z,100321.07
2019-04-25T23:07:56.882Z,100319.16
2019-04-25T23:10:27.240Z,100324.73
2019-04-25T23:12:57.424Z,100322.20
2019-04-25T23:15:27.614Z,100332.72
2019-04-25T23:17:57.970Z,100327.17
2019-04-25T23:20:28.073Z,100334.85
2019-04-25T23:22:58.150Z,100331.72
2019-04-25T23:25:53.378Z,100322.09
2019-04-25T23:28:25.712Z,100328.13
2019-04-25T23:31:20.849Z,100336.95
2019-04-25T23:33:50.916Z,100341.13
2019-04-25T23:36:21.347Z,100338.86
2019-04-25T23:38:51.445Z,100335.45
2019-04-25T23:41:21.897Z,100332.63
2019-04-25T23:43:54.388Z,100330.48
2019-04-25T23:46:24.883Z,100333.08
2019-04-25T23:48:55.077Z,100338.34
2019-04-25T23:51:25.223Z,100339.12
2019-04-25T23:53:55.700Z,100339.65
2019-04-25T23:56:25.837Z,100342.48
2019-04-25T23:58:56.321Z,100331.39
